Time;durP1;ratioP1;P1;durP2;ratioP2;P2;SDS_P1;SDS_P2;PMS_P1;PMS_P2;Temp;Humidity;BMP_temperature;BMP_pressure;BME280_temperature;BME280_humidity;BME280_pressure;Samples;Min_cycle;Max_cycle;Signal;HPM_P1;HPM_P2
2022/01/02 00:00:22;;;;;;;1.07;0.70;;;;;;;0.49;100.00;100053.53;1745979;82;21104;-76
2022/01/02 00:02:51;;;;;;;1.55;0.53;;;;;;;0.44;100.00;100074.67;1734064;82;21010;-76
2022/01/02 00:05:20;;;;;;;1.12;0.75;;;;;;;0.41;100.00;100071.66;1738914;82;21108;-77
2022/01/02 00:08:10;;;;;;;0.53;0.50;;;;;;;0.40;100.00;100076.81;1728837;82;22493;-76
2022/01/02 00:10:49;;;;;;;0.62;0.50;;;;;;;0.39;100.00;100082.84;1716518;83;21581;-75
2022/01/02 00:13:30;;;;;;;0.45;0.45;;;;;;;0.39;100.00;100091.50;1704601;84;21073;-78
2022/01/02 00:16:04;;;;;;;0.40;0.40;;;;;;;0.40;100.00;100096.25;1704542;83;21519;-75
2022/01/02 00:18:28;;;;;;;0.60;0.50;;;;;;;0.37;100.00;100093.66;1704177;83;21053;-76
2022/01/02 00:20:56;;;;;;;1.17;0.60;;;;;;;0.38;100.00;100094.08;1661838;84;21181;-77
2022/01/02 00:23:29;;;;;;;0.50;0.50;;;;;;;0.40;100.00;100105.31;1704176;84;21093;-75
2022/01/02 00:25:55;;;;;;;0.60;0.60;;;;;;;0.40;100.00;100105.31;1703471;83;21569;-75
2022/01/02 00:28:23;;;;;;;0.50;0.50;;;;;;;0.41;100.00;100112.22;1703864;84;21662;-75
2022/01/02 00:30:49;;;;;;;0.75;0.65;;;;;;;0.41;100.00;100131.64;1704203;84;21081;-75
2022/01/02 00:33:19;;;;;;;0.85;0.53;;;;;;;0.41;100.00;100126.06;1703902;84;21123;-74
2022/01/02 00:35:47;;;;;;;0.93;0.70;;;;;;;0.40;100.00;100133.81;1684667;84;21105;-75
2022/01/02 00:38:20;;;;;;;0.50;0.50;;;;;;;0.39;100.00;100132.06;1720905;82;21323;-76
2022/01/02 00:40:49;;;;;;;1.37;0.60;;;;;;;0.38;100.00;100135.53;1668262;85;21070;-75
2022/01/02 00:43:35;;;;;;;1.65;0.78;;;;;;;0.36;100.00;100146.31;1648986;86;21094;-77
2022/01/02 00:46:04;;;;;;;1.92;0.88;;;;;;;0.33;100.00;100160.55;1668224;85;21154;-76
2022/01/02 00:48:30;;;;;;;1.37;0.80;;;;;;;0.28;100.00;100158.38;1649513;85;22281;-75
2022/01/02 00:51:03;;;;;;;1.52;0.70;;;;;;;0.23;100.00;100158.75;1731536;82;21019;-75
2022/01/02 00:53:35;;;;;;;0.78;0.78;;;;;;;0.20;100.00;100164.79;1726778;82;21046;-74
2022/01/02 00:56:03;;;;;;;1.05;0.70;;;;;;;0.16;100.00;100157.45;1704259;84;21560;-75
2022/01/02 00:58:53;;;;;;;0.80;0.68;;;;;;;0.15;100.00;100160.02;1704028;84;21151;-76
2022/01/02 01:01:31;;;;;;;1.27;0.80;;;;;;;0.14;99.93;100172.11;1719842;82;21540;-78
2022/01/02 01:03:58;;;;;;;1.55;0.70;;;;;;;0.13;98.16;100164.32;1733277;82;21042;-77
2022/01/02 01:06:28;;;;;;;0.90;0.70;;;;;;;0.08;97.80;100165.59;1733413;82;21046;-77
2022/01/02 01:08:56;;;;;;;0.95;0.80;;;;;;;0.05;98.42;100165.58;1728960;82;21734;-78
2022/01/02 01:11:27;;;;;;;1.30;1.00;;;;;;;0.00;98.09;100172.45;1662615;84;21159;-77
2022/01/02 01:13:55;;;;;;;4.63;0.90;;;;;;;-0.05;99.06;100175.42;1665736;86;21540;-77
2022/01/02 01:16:22;;;;;;;0.90;0.80;;;;;;;-0.11;99.24;100171.52;1677307;85;21869;-75
2022/01/02 01:18:49;;;;;;;0.82;0.75;;;;;;;-0.13;100.00;100170.63;1665487;86;22174;-77
2022/01/02 01:21:17;;;;;;;1.57;0.88;;;;;;;-0.15;100.00;100161.55;1711876;83;21124;-76
2022/01/02 01:23:44;;;;;;;1.60;0.95;;;;;;;-0.15;100.00;100164.58;1733918;82;21198;-80
2022/01/02 01:26:12;;;;;;;1.82;0.80;;;;;;;-0.20;100.00;100167.56;1712307;82;21022;-80
2022/01/02 01:28:41;;;;;;;2.10;1.10;;;;;;;-0.20;100.00;100178.78;1741351;82;21077;-80
2022/01/02 01:31:09;;;;;;;1.17;0.70;;;;;;;-0.22;100.00;100185.66;1741118;82;21006;-78
2022/01/02 01:33:37;;;;;;;2.37;0.80;;;;;;;-0.25;100.00;100189.09;1741028;82;21956;-77
2022/01/02 01:36:04;;;;;;;2.15;0.90;;;;;;;-0.25;100.00;100192.98;1741089;82;21108;-75
2022/01/02 01:38:32;;;;;;;7.87;1.07;;;;;;;-0.26;100.00;100197.70;1740897;82;21573;-76
2022/01/02 01:41:07;;;;;;;2.02;0.82;;;;;;;-0.28;100.00;100208.46;1741527;82;21057;-77
2022/01/02 01:43:53;;;;;;;1.05;0.80;;;;;;;-0.36;100.00;100205.39;1741299;82;21576;-78
2022/01/02 01:46:06;;;;;;;0.78;0.75;;;;;;;-0.42;100.00;100207.48;1737945;82;21120;-77
2022/01/02 01:48:33;;;;;;;0.68;0.60;;;;;;;-0.48;100.00;100217.80;1712215;82;21890;-76
2022/01/02 01:51:00;;;;;;;1.10;0.70;;;;;;;-0.54;100.00;100215.15;1741311;82;21144;-76
2022/01/02 01:53:26;;;;;;;1.00;0.70;;;;;;;-0.61;99.41;100222.41;1741445;81;21085;-76
2022/01/02 01:55:56;;;;;;;1.45;0.80;;;;;;;-0.66;98.67;100222.37;1741423;82;21030;-77
2022/01/02 01:58:23;;;;;;;1.25;0.98;;;;;;;-0.67;99.77;100212.45;1712183;82;21124;-77
2022/01/02 02:00:50;;;;;;;0.70;0.70;;;;;;;-0.66;98.89;100227.11;1688959;82;21106;-77
2022/01/02 02:03:20;;;;;;;1.27;0.72;;;;;;;-0.66;98.78;100233.57;1735177;82;21190;-78
2022/01/02 02:05:47;;;;;;;3.20;0.80;;;;;;;-0.66;96.86;100214.17;1712038;83;21057;-81
2022/01/02 02:08:16;;;;;;;0.78;0.70;;;;;;;-0.68;95.99;100224.92;1711677;83;22235;-79
2022/01/02 02:10:46;;;;;;;2.65;0.80;;;;;;;-0.69;93.62;100218.03;1711854;83;21060;-77
2022/01/02 02:13:12;;;;;;;0.50;0.50;;;;;;;-0.74;91.68;100237.78;1716625;83;21130;-80
2022/01/02 02:15:42;;;;;;;1.63;1.00;;;;;;;-0.76;90.99;100251.55;1717634;83;21077;-77
2022/01/02 02:18:09;;;;;;;1.22;0.80;;;;;;;-0.81;88.54;100238.57;1717385;83;21049;-79
2022/01/02 02:20:37;;;;;;;0.93;0.70;;;;;;;-0.81;89.95;100246.77;1690933;83;21080;-80
2022/01/02 02:23:06;;;;;;;1.62;0.80;;;;;;;-0.83;90.30;100240.70;1716455;82;21144;-78
2022/01/02 02:25:36;;;;;;;1.35;0.70;;;;;;;-0.87;88.39;100250.16;1717471;83;21567;-77
2022/01/02 02:28:13;;;;;;;1.40;0.90;;;;;;;-0.92;87.42;100260.85;1718237;82;21082;-78
2022/01/02 02:30:43;;;;;;;0.82;0.70;;;;;;;-1.00;86.86;100251.73;1746037;82;21601;-76
2022/01/02 02:33:11;;;;;;;2.33;1.10;;;;;;;-1.01;89.50;100284.00;1747200;82;21065;-78
2022/01/02 02:35:41;;;;;;;1.25;0.80;;;;;;;-1.05;89.21;100276.66;1730228;82;21080;-74
2022/01/02 02:38:09;;;;;;;1.82;0.90;;;;;;;-1.11;89.31;100277.43;1717810;83;21760;-73
2022/01/02 02:40:37;;;;;;;1.42;1.00;;;;;;;-1.15;91.73;100274.39;1731839;82;21623;-79
2022/01/02 02:43:19;;;;;;;8.68;0.90;;;;;;;-1.18;92.13;100278.20;1745469;82;21053;-73
2022/01/02 02:51:25;;;;;;;0.82;0.80;;;;;;;-1.31;93.49;100281.50;1717283;83;21999;-74
2022/01/02 02:53:51;;;;;;;1.00;0.90;;;;;;;-1.41;91.62;100273.16;1717252;83;21053;-73
2022/01/02 02:56:26;;;;;;;1.07;0.90;;;;;;;-1.51;92.01;100285.09;1717349;83;21101;-73
2022/01/02 02:58:59;;;;;;;2.25;0.90;;;;;;;-1.58;91.05;100284.55;1717356;83;21230;-71
2022/01/02 03:01:26;;;;;;;1.12;0.90;;;;;;;-1.63;91.12;100292.23;1716721;83;21537;-71
2022/01/02 03:03:53;;;;;;;1.40;0.93;;;;;;;-1.65;92.05;100293.06;1702490;82;21905;-72
2022/01/02 03:06:20;;;;;;;1.30;1.02;;;;;;;-1.70;92.12;100294.28;1747126;81;22151;-73
2022/01/02 03:08:48;;;;;;;1.50;1.10;;;;;;;-1.71;91.99;100296.40;1745953;82;21081;-74
2022/01/02 03:11:18;;;;;;;3.75;1.07;;;;;;;-1.76;92.28;100294.17;1707325;84;21133;-72
2022/01/02 03:13:48;;;;;;;1.12;1.00;;;;;;;-1.79;92.42;100309.62;1676328;84;21061;-72
2022/01/02 03:16:15;;;;;;;1.20;1.07;;;;;;;-1.81;93.19;100313.47;1676071;85;21119;-73
2022/01/02 03:18:41;;;;;;;1.30;1.00;;;;;;;-1.83;90.98;100322.03;1676084;85;22210;-71
2022/01/02 03:21:09;;;;;;;1.62;0.90;;;;;;;-1.88;91.17;100332.72;1675989;85;21203;-72
2022/01/02 03:23:37;;;;;;;2.35;1.10;;;;;;;-1.95;90.76;100341.64;1676057;85;21645;-71
2022/01/02 03:26:04;;;;;;;1.25;1.00;;;;;;;-1.95;92.78;100345.94;1676061;85;21616;-72
2022/01/02 03:28:31;;;;;;;1.77;1.15;;;;;;;-1.99;90.64;100343.70;1676214;85;21458;-71
2022/01/02 03:30:58;;;;;;;2.90;1.10;;;;;;;-2.02;90.53;100352.70;1676063;85;21125;-72
2022/01/02 03:33:26;;;;;;;1.25;1.07;;;;;;;-2.06;90.81;100348.32;1739789;82;21129;-71
2022/01/02 03:35:53;;;;;;;0.93;0.82;;;;;;;-2.08;91.18;100350.00;1739795;82;21561;-72
2022/01/02 03:38:22;;;;;;;1.42;1.00;;;;;;;-2.10;91.46;100359.42;1739945;82;21038;-72
2022/01/02 03:40:49;;;;;;;2.67;1.20;;;;;;;-2.11;91.17;100362.86;1739914;82;21062;-73
2022/01/02 03:43:16;;;;;;;1.30;1.10;;;;;;;-2.10;91.61;100380.07;1739878;82;21101;-71
2022/01/02 03:45:46;;;;;;;1.37;0.98;;;;;;;-2.12;91.47;100375.30;1671915;85;21137;-72
2022/01/02 03:48:13;;;;;;;2.02;1.10;;;;;;;-2.14;91.64;100389.87;1692291;84;21208;-74
2022/01/02 03:50:40;;;;;;;3.20;0.82;;;;;;;-2.16;92.08;100394.17;1692315;84;21073;-71
2022/01/02 03:53:07;;;;;;;5.17;1.20;;;;;;;-2.22;92.50;100394.05;1692244;84;21945;-72
2022/01/02 03:55:35;;;;;;;1.20;0.95;;;;;;;-2.27;93.31;100397.83;1692344;84;21084;-73
2022/01/02 03:58:02;;;;;;;0.95;0.72;;;;;;;-2.30;92.81;100407.20;1692656;84;21116;-74
2022/01/02 04:00:29;;;;;;;1.90;1.12;;;;;;;-2.35;92.57;100414.45;1692468;84;21592;-73
2022/01/02 04:02:56;;;;;;;3.47;1.10;;;;;;;-2.42;93.81;100415.14;1668486;84;21148;-72
2022/01/02 04:05:22;;;;;;;1.37;1.00;;;;;;;-2.44;94.31;100417.24;1677374;85;21753;-67
2022/01/02 04:07:50;;;;;;;1.05;0.90;;;;;;;-2.48;93.47;100434.39;1677832;85;21519;-66
2022/01/02 04:10:18;;;;;;;2.25;0.90;;;;;;;-2.51;94.05;100442.03;1677362;85;21081;-66
2022/01/02 04:12:45;;;;;;;1.37;1.10;;;;;;;-2.55;93.73;100448.86;1674809;85;21061;-67
2022/01/02 04:15:14;;;;;;;1.32;1.10;;;;;;;-2.59;93.79;100443.60;1669395;85;21907;-67
2022/01/02 04:17:41;;;;;;;1.67;1.37;;;;;;;-2.61;93.82;100451.72;1669912;85;21145;-67
2022/01/02 04:20:14;;;;;;;2.42;1.37;;;;;;;-2.64;94.38;100455.53;1670159;85;21077;-66
2022/01/02 04:22:43;;;;;;;2.08;1.22;;;;;;;-2.67;94.58;100458.02;1670131;85;21089;-66
2022/01/02 04:25:11;;;;;;;1.90;1.17;;;;;;;-2.71;93.26;100462.66;1667407;85;21056;-67
2022/01/02 04:27:39;;;;;;;6.12;1.35;;;;;;;-2.77;93.26;100462.98;1731814;82;21051;-66
2022/01/02 04:30:12;;;;;;;1.57;1.00;;;;;;;-2.80;93.14;100462.05;1723965;82;21139;-65
2022/01/02 04:32:39;;;;;;;2.20;1.30;;;;;;;-2.81;94.55;100471.47;1693597;82;21042;-66
2022/01/02 04:35:08;;;;;;;2.00;1.20;;;;;;;-2.85;95.00;100464.53;1712081;82;21033;-65
2022/01/02 04:37:36;;;;;;;1.85;1.20;;;;;;;-2.87;94.33;100462.33;1710559;82;21020;-67
2022/01/02 04:40:04;;;;;;;1.72;1.00;;;;;;;-2.92;95.11;100467.81;1705482;82;21545;-66
2022/01/02 04:42:32;;;;;;;1.20;1.10;;;;;;;-2.96;95.56;100468.56;1713214;82;21672;-67
2022/01/02 04:44:59;;;;;;;2.58;1.22;;;;;;;-3.00;94.20;100479.62;1703626;84;21049;-65
2022/01/02 04:47:27;;;;;;;3.58;1.20;;;;;;;-3.02;92.65;100480.01;1707862;82;21560;-67
2022/01/02 04:49:54;;;;;;;6.60;1.47;;;;;;;-3.06;92.83;100475.61;1704140;84;21113;-66
2022/01/02 04:52:21;;;;;;;2.00;1.25;;;;;;;-3.07;92.48;100488.05;1701621;82;21085;-67
2022/01/02 04:54:48;;;;;;;2.12;1.40;;;;;;;-3.10;92.47;100494.44;1688557;84;21099;-69
2022/01/02 04:57:15;;;;;;;1.52;1.30;;;;;;;-3.11;91.83;100499.11;1688394;83;21089;-68
2022/01/02 04:59:43;;;;;;;1.32;1.12;;;;;;;-3.17;91.35;100498.56;1688365;84;21631;-68
2022/01/02 05:02:10;;;;;;;17.75;1.80;;;;;;;-3.19;92.38;100506.24;1688200;84;21120;-67
2022/01/02 05:04:38;;;;;;;2.37;1.60;;;;;;;-3.22;90.73;100516.88;1688120;84;21102;-68
2022/01/02 05:07:05;;;;;;;2.27;1.07;;;;;;;-3.26;91.13;100521.09;1687761;84;21790;-69
2022/01/02 05:09:32;;;;;;;2.00;1.22;;;;;;;-3.30;91.65;100512.83;1667093;84;21116;-70
2022/01/02 05:11:59;;;;;;;1.50;1.30;;;;;;;-3.29;92.32;100525.28;1689276;84;21092;-71
2022/01/02 05:14:26;;;;;;;1.75;1.32;;;;;;;-3.33;92.37;100523.06;1689315;83;21573;-71
2022/01/02 05:16:53;;;;;;;3.35;1.20;;;;;;;-3.37;92.20;100522.52;1693128;84;21091;-70
2022/01/02 05:19:20;;;;;;;2.27;1.42;;;;;;;-3.40;92.65;100528.89;1702667;83;21147;-71
2022/01/02 05:21:48;;;;;;;3.12;1.40;;;;;;;-3.44;93.15;100525.78;1698534;83;21112;-68
2022/01/02 05:24:15;;;;;;;2.90;1.60;;;;;;;-3.47;94.37;100524.42;1723252;83;21700;-68
2022/01/02 05:26:42;;;;;;;2.33;1.70;;;;;;;-3.50;94.67;100525.18;1696988;83;21629;-67
2022/01/02 05:29:09;;;;;;;1.60;1.40;;;;;;;-3.51;93.92;100531.60;1722637;83;21041;-66
2022/01/02 05:31:36;;;;;;;2.53;1.60;;;;;;;-3.54;94.93;100529.82;1724090;83;21124;-69
2022/01/02 05:34:03;;;;;;;1.82;1.52;;;;;;;-3.56;95.44;100533.19;1723747;83;21564;-66
2022/01/02 05:36:30;;;;;;;2.00;1.25;;;;;;;-3.61;94.04;100532.64;1707734;83;21059;-68
2022/01/02 05:38:58;;;;;;;2.08;1.60;;;;;;;-3.63;94.53;100547.17;1694127;84;21134;-68
2022/01/02 05:41:27;;;;;;;1.45;1.20;;;;;;;-3.65;95.96;100539.83;1694151;84;21129;-68
2022/01/02 05:43:55;;;;;;;3.55;1.60;;;;;;;-3.68;94.37;100544.00;1705994;83;21849;-68
2022/01/02 05:46:23;;;;;;;3.40;1.53;;;;;;;-3.68;95.22;100542.72;1722012;83;21000;-69
2022/01/02 05:48:50;;;;;;;3.90;2.05;;;;;;;-3.73;94.43;100541.30;1694492;84;21702;-69
2022/01/02 05:51:17;;;;;;;1.80;1.30;;;;;;;-3.77;94.01;100540.78;1694444;84;21064;-70
2022/01/02 05:53:44;;;;;;;1.37;1.10;;;;;;;-3.84;93.73;100538.45;1717804;83;21531;-68
2022/01/02 05:56:14;;;;;;;2.53;1.60;;;;;;;-3.86;93.43;100557.26;1723511;83;21132;-69
2022/01/02 05:58:40;;;;;;;2.42;1.80;;;;;;;-3.88;93.40;100557.62;1717624;83;21565;-71
2022/01/02 06:01:08;;;;;;;2.22;1.42;;;;;;;-3.93;93.98;100564.35;1708018;83;21093;-69
2022/01/02 06:03:35;;;;;;;2.47;1.30;;;;;;;-3.96;93.41;100564.24;1723246;83;21111;-71
2022/01/02 06:06:01;;;;;;;1.95;1.30;;;;;;;-4.00;93.61;100573.59;1723404;83;21053;-70
2022/01/02 06:08:30;;;;;;;1.62;1.32;;;;;;;-4.06;93.62;100570.41;1723484;83;21148;-70
2022/01/02 06:10:57;;;;;;;2.33;1.77;;;;;;;-4.03;93.42;100572.20;1723384;83;21048;-71
2022/01/02 06:13:24;;;;;;;9.80;1.60;;;;;;;-4.07;93.18;100581.55;1719207;82;21515;-72
2022/01/02 06:15:53;;;;;;;2.65;1.90;;;;;;;-4.05;93.19;100585.03;1712870;83;21699;-70
2022/01/02 06:18:20;;;;;;;2.37;1.60;;;;;;;-4.04;93.42;100588.05;1712846;83;21088;-70
2022/01/02 06:20:46;;;;;;;1.90;1.40;;;;;;;-4.04;93.86;100583.33;1712756;83;21131;-69
2022/01/02 06:23:13;;;;;;;2.17;1.40;;;;;;;-4.04;94.65;100588.47;1713985;82;21220;-69
2022/01/02 06:25:43;;;;;;;1.53;1.20;;;;;;;-4.04;94.21;100590.63;1734235;82;21370;-69
2022/01/02 06:28:10;;;;;;;2.27;1.30;;;;;;;-4.05;94.50;100581.56;1735513;82;21041;-70
2022/01/02 06:30:37;;;;;;;3.95;1.30;;;;;;;-4.05;93.41;100587.61;1737525;82;21062;-70
2022/01/02 06:33:05;;;;;;;2.30;1.55;;;;;;;-4.05;93.70;100592.75;1735884;82;21078;-70
2022/01/02 06:35:34;;;;;;;3.70;1.65;;;;;;;-4.06;92.82;100592.28;1712652;82;21054;-70
2022/01/02 06:38:14;;;;;;;3.27;1.47;;;;;;;-4.06;92.19;100603.85;1720876;82;21520;-68
2022/01/02 06:40:43;;;;;;;1.90;1.40;;;;;;;-4.05;92.63;100599.19;1733943;82;21549;-69
2022/01/02 06:43:13;;;;;;;3.13;1.50;;;;;;;-4.04;92.52;100600.91;1729873;82;21116;-70
2022/01/02 06:45:40;;;;;;;4.17;1.70;;;;;;;-4.04;92.96;100604.77;1704753;82;22058;-68
2022/01/02 06:48:07;;;;;;;2.33;1.45;;;;;;;-4.02;92.33;100613.41;1737260;82;21054;-69
2022/01/02 06:50:33;;;;;;;2.08;1.40;;;;;;;-4.02;92.96;100605.70;1713947;82;21100;-70
2022/01/02 06:53:01;;;;;;;3.07;1.30;;;;;;;-3.99;93.71;100611.34;1708123;82;21002;-70
2022/01/02 06:55:28;;;;;;;1.95;1.40;;;;;;;-3.97;92.62;100609.69;1707929;83;21049;-71
2022/01/02 06:57:55;;;;;;;1.80;1.32;;;;;;;-3.97;91.75;100604.97;1707853;82;21845;-69
2022/01/02 07:00:22;;;;;;;3.92;1.55;;;;;;;-3.97;90.66;100610.11;1671266;85;21077;-68
2022/01/02 07:02:50;;;;;;;2.85;1.40;;;;;;;-3.97;91.61;100619.98;1659438;84;21548;-68
2022/01/02 07:05:16;;;;;;;1.85;1.42;;;;;;;-3.95;90.42;100616.18;1667809;84;21089;-69
2022/01/02 07:07:45;;;;;;;2.10;1.33;;;;;;;-3.94;90.63;100613.63;1644667;85;21102;-69
2022/01/02 07:10:14;;;;;;;3.35;1.32;;;;;;;-3.91;90.36;100612.84;1651509;85;21104;-69
2022/01/02 07:12:40;;;;;;;3.37;1.75;;;;;;;-3.87;91.05;100615.97;1664362;84;21121;-67
2022/01/02 07:15:08;;;;;;;2.40;1.42;;;;;;;-3.83;91.07;100615.23;1692129;83;21149;-67
2022/01/02 07:17:36;;;;;;;3.22;1.45;;;;;;;-3.74;90.25;100619.36;1692144;84;21096;-70
2022/01/02 07:23:00;;;;;;;4.33;1.60;;;;;;;-2.53;87.97;100613.95;1782278;79;20933;-90
2022/01/02 07:25:27;;;;;;;3.67;1.35;;;;;;;-1.55;85.51;100605.73;1755078;79;21104;-87
2022/01/02 07:27:54;;;;;;;2.40;1.30;;;;;;;-0.73;82.92;100609.38;1788453;78;22181;-91
2022/01/02 07:30:21;;;;;;;4.47;1.40;;;;;;;0.16;83.56;100603.33;1795470;78;21025;-92
2022/01/02 07:32:48;;;;;;;1.42;1.32;;;;;;;1.04;77.26;100606.05;1778652;78;20997;-90
2022/01/02 07:35:15;;;;;;;1.87;1.30;;;;;;;1.71;71.72;100613.95;1749679;78;21677;-88
2022/01/02 07:37:43;;;;;;;10.45;1.50;;;;;;;2.22;64.80;100603.41;1777038;79;21045;-91
2022/01/02 07:40:12;;;;;;;2.40;1.35;;;;;;;2.67;60.60;100605.75;1781091;79;21056;-91
2022/01/02 07:42:38;;;;;;;1.60;1.30;;;;;;;2.95;59.01;100607.12;1790590;79;21060;-91
2022/01/02 07:45:07;;;;;;;1.37;1.10;;;;;;;3.39;58.13;100608.89;1745080;81;21088;-90
2022/01/02 07:47:34;;;;;;;1.90;1.30;;;;;;;3.86;51.37;100605.35;1748405;80;22170;-88
2022/01/02 07:50:01;;;;;;;3.40;1.35;;;;;;;4.18;50.96;100609.62;1756344;81;21041;-90
2022/01/02 07:52:27;;;;;;;3.90;1.20;;;;;;;4.41;49.76;100618.22;1742179;79;21017;-90
2022/01/02 07:54:55;;;;;;;2.60;1.20;;;;;;;4.72;47.55;100618.09;1771436;80;21141;-89
2022/01/02 07:57:22;;;;;;;1.85;1.05;;;;;;;5.14;48.66;100622.62;1756852;81;21029;-89
2022/01/02 07:59:49;;;;;;;7.22;1.62;;;;;;;5.50;46.24;100620.62;1779320;80;21152;-90
2022/01/02 08:02:17;;;;;;;3.55;1.15;;;;;;;5.55;43.83;100615.36;1777092;79;21037;-90
2022/01/02 08:04:43;;;;;;;1.65;1.20;;;;;;;5.72;45.63;100601.68;1776316;79;21115;-91
2022/01/02 08:07:12;;;;;;;3.67;1.10;;;;;;;5.95;43.80;100606.70;1767656;79;21072;-91
2022/01/02 08:09:39;;;;;;;1.87;1.15;;;;;;;6.14;44.30;100606.06;1770724;78;20971;-89
2022/01/02 08:12:08;;;;;;;2.15;1.30;;;;;;;6.39;44.45;100613.18;1794103;79;21091;-92
2022/01/02 08:14:35;;;;;;;2.52;1.30;;;;;;;6.65;44.85;100614.63;1785247;78;21057;-95
2022/01/02 08:17:02;;;;;;;2.65;1.47;;;;;;;6.92;42.35;100606.40;1712909;80;21090;-90
2022/01/02 08:19:30;;;;;;;1.82;1.22;;;;;;;7.16;41.75;100608.22;1750641;79;21029;-92
2022/01/02 08:21:57;;;;;;;2.40;1.20;;;;;;;7.44;42.66;100611.72;1762948;80;21051;-92
2022/01/02 08:24:24;;;;;;;1.47;0.85;;;;;;;7.81;40.19;100607.15;1771843;80;21123;-91
2022/01/02 08:26:52;;;;;;;1.75;1.15;;;;;;;8.06;40.05;100612.81;1809623;79;21022;-91
2022/01/02 08:29:26;;;;;;;3.50;1.52;;;;;;;8.27;38.48;100612.84;1779102;78;21236;-90
2022/01/02 08:31:58;;;;;;;2.30;1.10;;;;;;;8.13;35.30;100607.86;1773109;78;21042;-89
2022/01/02 08:34:25;;;;;;;1.57;1.00;;;;;;;8.07;35.21;100611.45;1772181;79;21048;-89
2022/01/02 08:36:53;;;;;;;1.30;0.90;;;;;;;8.15;36.26;100609.55;1730469;80;21140;-91
2022/01/02 08:39:21;;;;;;;3.27;1.42;;;;;;;8.35;36.00;100604.34;1734053;81;22222;-88
2022/01/02 08:41:49;;;;;;;20.05;1.80;;;;;;;8.57;34.38;100603.50;1728273;79;79117;-71
2022/01/02 08:53:23;;;;;;;2.35;1.40;;;;;;;8.58;33.11;100586.84;1650050;85;21078;-89
2022/01/02 08:55:49;;;;;;;12.07;3.62;;;;;;;8.66;33.80;100583.61;1651428;85;21126;-88
2022/01/02 08:58:17;;;;;;;1.60;0.95;;;;;;;8.79;34.90;100586.84;1644957;86;21109;-87
2022/01/02 09:00:44;;;;;;;3.55;1.32;;;;;;;8.94;32.37;100589.55;1651567;86;21777;-92
2022/01/02 09:03:10;;;;;;;8.60;2.05;;;;;;;8.96;33.22;100583.36;1627386;87;21117;-91
2022/01/02 09:05:38;;;;;;;3.47;1.40;;;;;;;9.11;34.38;100590.47;1626836;87;21113;-89
2022/01/02 09:08:09;;;;;;;4.45;1.47;;;;;;;9.26;33.08;100587.48;1626952;88;21578;-91
2022/01/02 09:10:36;;;;;;;2.87;1.52;;;;;;;9.47;33.93;100578.20;1654127;86;21137;-90
2022/01/02 09:13:08;;;;;;;5.78;2.92;;;;;;;9.59;33.52;100575.70;1654252;85;21062;-92
2022/01/02 09:15:35;;;;;;;3.90;1.40;;;;;;;9.76;33.99;100568.25;1654979;86;26097;-91
2022/01/02 09:18:05;;;;;;;1.80;1.02;;;;;;;10.02;33.06;100574.56;1655229;86;21113;-92
2022/01/02 09:20:34;;;;;;;3.40;1.10;;;;;;;10.21;30.51;100570.50;1656069;86;21533;-89
2022/01/02 09:23:02;;;;;;;1.75;1.10;;;;;;;10.27;30.45;100576.91;1627854;88;21543;-91
2022/01/02 09:25:30;;;;;;;2.15;1.10;;;;;;;10.20;30.06;100572.73;1678723;80;77087;-69
2022/01/02 09:27:57;;;;;;;4.17;1.30;;;;;;;10.34;29.53;100563.62;1754521;81;21126;-69
2022/01/02 09:30:23;;;;;;;2.12;1.05;;;;;;;10.39;28.12;100565.66;1730531;80;21056;-71
2022/01/02 09:32:50;;;;;;;4.28;1.10;;;;;;;10.52;28.46;100563.53;1756071;81;20992;-69
2022/01/02 09:35:17;;;;;;;2.60;1.07;;;;;;;10.48;28.47;100565.38;1755799;80;21545;-71
2022/01/02 09:37:43;;;;;;;7.45;2.35;;;;;;;10.74;27.91;100567.68;1755813;80;21094;-68
2022/01/02 09:40:10;;;;;;;2.87;1.10;;;;;;;10.52;28.08;100563.08;1755660;80;21111;-68
2022/01/02 09:42:39;;;;;;;2.55;1.25;;;;;;;10.37;29.36;100558.25;1759178;80;21750;-69
2022/01/02 09:45:07;;;;;;;12.55;5.45;;;;;;;10.41;28.35;100555.95;1754953;81;21538;-68
2022/01/02 09:47:34;;;;;;;11.35;2.85;;;;;;;10.23;29.04;100558.16;1763028;81;21259;-69
2022/01/02 09:50:07;;;;;;;6.28;2.58;;;;;;;10.22;30.28;100572.24;1766735;80;21088;-68
2022/01/02 09:52:33;;;;;;;27.90;12.25;;;;;;;10.32;28.08;100567.60;1745286;79;21120;-70
2022/01/02 09:54:59;;;;;;;22.42;8.40;;;;;;;10.16;30.42;100575.04;1737928;81;21049;-66
2022/01/02 09:57:26;;;;;;;15.25;2.98;;;;;;;10.33;30.29;100575.92;1730609;82;21042;-68
2022/01/02 09:59:53;;;;;;;6.62;2.17;;;;;;;10.59;29.93;100578.24;1725884;83;21109;-68
2022/01/02 10:02:19;;;;;;;2.95;1.30;;;;;;;10.69;29.73;100574.41;1725703;82;21066;-68
2022/01/02 10:04:46;;;;;;;6.45;2.47;;;;;;;10.84;28.90;100583.63;1725514;83;21070;-67
2022/01/02 10:07:30;;;;;;;4.05;1.40;;;;;;;10.88;27.93;100566.80;1725840;83;21059;-68
2022/01/02 10:09:57;;;;;;;2.92;1.52;;;;;;;10.77;27.67;100567.61;1697684;83;21069;-67
2022/01/02 10:12:30;;;;;;;3.22;1.60;;;;;;;10.85;27.46;100570.39;1696709;84;21043;-68
2022/01/02 10:15:16;;;;;;;5.08;1.92;;;;;;;10.90;27.14;100569.81;1718830;83;22188;-68
2022/01/02 10:18:10;;;;;;;16.82;7.47;;;;;;;11.06;28.19;100562.72;1721330;83;21450;-67
2022/01/02 10:20:42;;;;;;;2.50;1.55;;;;;;;11.27;27.40;100569.06;1720460;82;21089;-67
2022/01/02 10:23:23;;;;;;;6.35;2.85;;;;;;;11.17;27.49;100575.56;1722305;83;21063;-68
2022/01/02 10:26:00;;;;;;;;;;;;;;;11.09;31.10;100571.41;1721335;83;21087;-68
2022/01/02 10:28:42;;;;;;;2.42;1.20;;;;;;;11.28;27.93;100569.48;1705403;84;20128;-69
2022/01/02 10:31:17;;;;;;;7.17;2.20;;;;;;;11.52;27.02;100560.73;1703677;83;21066;-68
2022/01/02 10:33:54;;;;;;;25.77;9.55;;;;;;;11.48;25.91;100557.82;1703587;83;21181;-68
2022/01/02 10:36:32;;;;;;;24.00;9.65;;;;;;;11.30;27.11;100561.08;1703673;84;21073;-69
2022/01/02 10:39:11;;;;;;;44.15;17.35;;;;;;;11.19;28.46;100568.47;1703931;83;21048;-68
2022/01/02 10:41:45;;;;;;;68.87;28.87;;;;;;;10.98;29.76;100573.52;1703797;84;21060;-69
2022/01/02 10:44:29;;;;;;;9.33;3.37;;;;;;;10.84;30.38;100573.09;1704367;84;21121;-68
2022/01/02 10:47:17;;;;;;;10.53;1.87;;;;;;;10.62;27.63;100559.24;1744230;82;21062;-68
2022/01/02 10:50:04;;;;;;;7.37;2.52;;;;;;;10.31;28.15;100554.47;1749314;82;21620;-69
2022/01/02 10:52:40;;;;;;;21.55;10.03;;;;;;;10.50;26.88;100547.31;1734616;80;21020;-68
2022/01/02 10:55:24;;;;;;;4.65;2.05;;;;;;;10.65;29.28;100555.22;1724706;82;21121;-67
2022/01/02 10:57:54;;;;;;;88.80;37.60;;;;;;;10.79;28.34;100562.70;1723904;83;21180;-68
2022/01/02 11:00:24;;;;;;;6.97;3.20;;;;;;;10.88;31.89;100558.89;1725415;83;21639;-68
2022/01/02 11:02:51;;;;;;;21.60;7.20;;;;;;;10.90;27.32;100557.07;1724535;82;21094;-67
2022/01/02 11:05:20;;;;;;;9.83;4.87;;;;;;;10.81;27.57;100565.27;1724710;83;21051;-68
2022/01/02 11:07:58;;;;;;;12.25;4.78;;;;;;;10.63;26.88;100568.03;1726385;83;21102;-68
2022/01/02 11:10:23;;;;;;;6.17;2.95;;;;;;;10.58;28.06;100559.37;1697794;83;21150;-67
2022/01/02 11:12:52;;;;;;;4.75;2.22;;;;;;;10.77;26.97;100558.39;1723796;83;21071;-67
2022/01/02 11:15:24;;;;;;;3.42;1.57;;;;;;;10.75;25.78;100552.30;1714706;81;21046;-68
2022/01/02 11:17:51;;;;;;;4.42;1.80;;;;;;;10.52;25.88;100551.69;1725868;83;21071;-66
2022/01/02 11:20:28;;;;;;;6.25;2.83;;;;;;;10.21;25.69;100545.49;1725978;82;21034;-68
2022/01/02 11:23:15;;;;;;;33.88;13.15;;;;;;;10.31;26.63;100547.46;1725798;83;21154;-69
2022/01/02 11:25:50;;;;;;;69.60;29.57;;;;;;;10.50;27.99;100558.30;1709446;81;21082;-68
2022/01/02 11:29:48;;;;;;;47.88;12.78;;;;;;;10.53;26.62;100556.88;1792739;79;28499;-69
2022/01/02 11:32:34;;;;;;;30.30;13.22;;;;;;;10.44;26.65;100558.48;1759529;81;21053;-67
2022/01/02 11:34:57;;;;;;;4.83;2.80;;;;;;;10.05;27.06;100550.79;1741913;81;22280;-68
2022/01/02 11:37:27;;;;;;;12.45;5.60;;;;;;;9.66;28.71;100553.17;1750436;81;21034;-67
2022/01/02 11:39:59;;;;;;;25.95;11.65;;;;;;;9.42;27.54;100554.66;1750852;80;20950;-67
2022/01/02 11:42:42;;;;;;;40.12;17.75;;;;;;;9.38;32.40;100553.00;1742871;80;21101;-68
2022/01/02 11:45:19;;;;;;;14.43;6.22;;;;;;;9.41;30.26;100556.88;1749856;81;21029;-67
2022/01/02 11:47:47;;;;;;;14.15;4.37;;;;;;;9.28;28.43;100550.66;1725137;82;21957;-66
2022/01/02 11:50:36;;;;;;;4.03;1.57;;;;;;;9.28;27.69;100542.32;1732665;81;20997;-68
2022/01/02 11:53:19;;;;;;;5.15;2.30;;;;;;;9.39;27.33;100534.17;1723581;83;28864;-68
2022/01/02 11:55:47;;;;;;;;;;;;;;;9.58;27.50;100542.44;1728263;83;21626;-68